Latest Weather Observations for South Johnstone

IDQ60801

Issued at 11:31 pm EST Tuesday 1 September 2015 (issued every 30 minutes, with the page automatically refreshed every 10 minutes)

About weather observations | Map of weather stations | Latest weather observations for QLD | Other Formats
Station Details ID: 032037 Name: SOUTH JOHNSTONE EXP STN Lat: -17.61 Lon: 146.00 Height: 18.3 m
Data from the previous 72 hours. | See also: Recent months at South Johnstone
Date/Time
EST
Temp
°C
App
Temp
°C
Dew
Point
Rel
Hum
%
Delta-T
°C
Wind Press
QNH
hPa
Press
MSL
hPa
Rain
since 9 am
mm
Dir
 
Spd
km/h
Gust
km/h
Spd
kts
Gust
kts
01/11:30pm 22.6 26.7 20.8 89 1.2 CALM 0 0 0 0 1016.6 - 0.0
01/11:00pm 22.4 25.2 20.5 89 1.2 SW 6 7 3 4 1016.6 - 0.0
01/10:30pm 22.4 26.5 20.7 90 1.1 CALM 0 0 0 0 1016.4 - 0.0
01/10:00pm 22.5 26.5 20.5 88 1.3 CALM 0 0 0 0 1016.4 - 0.0
01/09:30pm 22.4 26.3 20.4 88 1.3 CALM 0 0 0 0 1016.2 - 0.0
01/09:00pm 22.6 26.5 20.4 87 1.4 CALM 0 0 0 0 1015.8 1015.7 0.0
01/08:30pm 22.7 26.6 20.4 87 1.5 CALM 0 0 0 0 1015.4 - 0.0
01/08:00pm 22.1 25.9 20.2 89 1.2 CALM 0 0 0 0 1015.2 - 0.0
01/07:30pm 22.1 25.8 19.9 87 1.4 CALM 0 0 0 0 1014.8 - 0.0
01/07:00pm 22.6 26.4 20.1 86 1.6 CALM 0 0 0 0 1014.4 - 0.0
01/06:30pm 23.5 26.0 19.9 80 2.3 NNE 6 9 3 5 1014.2 - 0.0
01/06:00pm 24.1 25.5 19.6 76 2.9 NE 11 15 6 8 1014.0 1013.9 0.0
01/05:30pm 24.6 25.3 19.6 73 3.2 NE 15 22 8 12 1013.8 - 0.0
01/05:00pm 25.0 25.6 19.4 71 3.6 NNE 15 22 8 12 1013.6 - 0.0
01/04:30pm 25.4 25.7 19.7 70 3.7 ENE 17 26 9 14 1013.4 - 0.0
01/04:00pm 26.1 26.0 19.6 67 4.2 ENE 19 26 10 14 1013.3 - 0.0
01/03:30pm 26.6 27.5 20.0 67 4.3 NE 15 26 8 14 1013.3 - 0.0
01/03:00pm 26.2 26.4 19.4 66 4.4 NE 17 24 9 13 1013.7 1013.6 0.0
01/02:30pm 27.0 27.9 20.1 66 4.5 NE 15 24 8 13 1013.8 - 0.0
01/02:00pm 26.8 27.7 20.1 66 4.4 NE 15 26 8 14 1014.2 - 0.0
01/01:30pm 27.2 27.9 20.5 67 4.4 ENE 17 24 9 13 1014.6 - 0.0
01/01:00pm 27.4 28.1 19.7 63 5.0 ENE 15 24 8 13 1015.0 - 0.0
01/12:30pm 27.1 28.3 20.0 65 4.6 NE 13 24 7 13 1015.5 - 0.0
01/12:00pm 27.7 28.8 19.7 61 5.2 NE 13 22 7 12 1016.0 1015.9 0.0
01/11:30am 27.7 28.9 19.9 62 5.1 NE 13 22 7 12 1016.6 - 0.0
01/11:00am 27.4 30.3 19.9 63 4.9 NNE 4 13 2 7 1017.1 - 0.0
01/10:30am 27.5 29.8 19.8 63 5.0 NE 7 15 4 8 1017.5 - 0.0
01/10:00am 27.1 30.4 19.9 64 4.7 NNE 2 9 1 5 1017.9 - 0.0
01/09:30am 25.9 28.8 19.0 65 4.4 SW 2 11 1 6 1017.9 - 0.0
01/09:00am 24.4 26.8 19.7 75 3.0 WSW 6 9 3 5 1017.8 1017.7 0.0
01/08:30am 23.4 27.1 20.0 81 2.2 CALM 0 0 0 0 1017.6 - 0.0
01/08:00am 21.7 24.9 19.7 88 1.3 WNW 2 6 1 3 1017.4 - 0.0
01/07:30am 20.3 23.6 19.2 93 0.7 CALM 0 0 0 0 1017.0 - 0.0
01/07:00am 19.8 23.1 19.2 96 0.4 CALM 0 0 0 0 1016.8 - 0.0
01/06:30am 18.8 21.7 18.2 96 0.4 CALM 0 0 0 0 1016.3 - 0.0
01/06:00am 18.6 21.5 18.1 97 0.3 CALM 0 0 0 0 1015.9 1015.8 0.0
01/05:30am 18.9 21.1 18.4 97 0.3 W 4 7 2 4 1015.6 - 0.0
01/05:00am 18.4 19.1 17.9 97 0.3 WSW 11 13 6 7 1015.5 - 0.0
01/04:30am 18.3 20.6 17.8 97 0.3 W 2 7 1 4 1015.2 - 0.0
01/04:00am 18.3 19.7 17.8 97 0.3 W 7 11 4 6 1015.1 - 0.0
01/03:30am 18.0 20.6 17.5 97 0.3 CALM 0 6 0 3 1015.1 - 0.0
01/03:00am 18.2 20.4 17.5 96 0.4 W 2 7 1 4 1015.1 1015.0 0.0
01/02:30am 18.5 20.9 18.0 97 0.3 WNW 2 7 1 4 1015.2 - 0.0
01/02:00am 18.3 19.9 17.8 97 0.3 W 6 11 3 6 1015.3 - 0.0
01/01:30am 18.3 19.7 17.8 97 0.3 WSW 7 11 4 6 1015.4 - 0.0
01/01:00am 18.7 20.8 18.0 96 0.4 W 4 9 2 5 1015.8 - 0.0
01/12:30am 18.6 20.2 17.9 96 0.4 W 6 13 3 7 1016.1 - 0.0
01/12:00am 18.8 20.5 18.0 95 0.5 WSW 6 9 3 5 1016.3 1016.2 0.0
 
Date/Time
EST
Temp
°C
App
Temp
°C
Dew
Point
Rel
Hum
%
Delta-T
°C
Wind Press
QNH
hPa
Press
MSL
hPa
Rain
since 9 am
mm
Dir
 
Spd
km/h
Gust
km/h
Spd
kts
Gust
kts
31/11:30pm 18.9 21.0 18.1 95 0.5 SW 4 9 2 5 1016.4 - 0.0
31/11:00pm 19.1 20.9 18.3 95 0.5 W 6 13 3 7 1016.3 - 0.0
31/10:30pm 19.4 20.4 18.6 95 0.5 WSW 11 15 6 8 1016.3 - 0.0
31/10:00pm 19.7 21.4 18.6 93 0.7 W 7 15 4 8 1016.3 - 0.0
31/09:30pm 19.9 21.7 18.8 93 0.7 WNW 7 13 4 7 1016.2 - 0.0
31/09:00pm 20.3 22.2 19.0 92 0.8 WSW 7 13 4 7 1016.1 1016.0 0.0
31/08:30pm 20.9 23.0 19.3 90 1.0 WSW 7 11 4 6 1015.8 - 0.0
31/08:00pm 21.1 24.5 19.4 90 1.1 CALM 0 0 0 0 1015.4 - 0.0
31/07:30pm 21.8 25.2 19.3 86 1.6 CALM 0 0 0 0 1015.0 - 0.0
31/07:00pm 22.1 25.4 19.1 83 1.9 CALM 0 0 0 0 1014.6 - 0.0
31/06:30pm 22.8 25.8 19.2 80 2.3 E 2 6 1 3 1014.2 - 0.0
31/06:00pm 23.5 25.4 18.9 75 2.9 ENE 7 9 4 5 1014.0 1013.9 0.0
31/05:30pm 24.4 25.8 18.7 70 3.6 NE 9 15 5 8 1013.8 - 0.0
31/05:00pm 24.8 25.7 18.5 68 4.0 NE 11 17 6 9 1013.6 - 0.0
31/04:30pm 25.4 26.0 18.5 65 4.4 NE 13 20 7 11 1013.4 - 0.0
31/04:00pm 25.9 26.3 18.2 62 4.9 ENE 13 20 7 11 1013.4 - 0.0
31/03:30pm 26.7 27.5 19.1 63 4.9 ENE 13 22 7 12 1013.4 - 0.0
31/03:00pm 26.9 27.2 18.8 61 5.2 NE 15 22 8 12 1013.6 1013.5 0.0
31/02:30pm 27.2 26.8 18.1 57 5.8 ENE 17 24 9 13 1013.9 - 0.0
31/02:00pm 28.2 28.1 17.0 50 7.0 E 13 22 7 12 1014.1 - 0.0
31/01:30pm 28.1 27.9 16.7 50 7.1 NE 13 19 7 10 1014.6 - 0.0
31/01:00pm 27.7 29.0 18.5 57 5.9 ENE 9 15 5 8 1015.0 - 0.0
31/12:30pm 27.4 28.6 19.0 60 5.4 E 11 17 6 9 1015.4 - 0.0
31/12:00pm 27.6 29.2 19.1 59 5.5 E 9 17 5 9 1015.8 1015.7 0.0
31/11:30am 27.1 28.8 18.1 58 5.7 E 6 11 3 6 1016.3 - 0.0
31/11:00am 27.4 29.3 18.5 58 5.7 NE 6 13 3 7 1016.8 - 0.0
31/10:30am 27.0 30.3 19.2 62 5.0 CALM 0 0 0 0 1017.2 - 0.0
31/10:00am 25.8 27.3 18.9 65 4.4 ENE 9 13 5 7 1017.4 - 0.0
31/09:30am 25.7 28.9 19.8 70 3.8 NW 2 7 1 4 1017.5 - 0.0
31/09:00am 24.0 27.3 19.0 73 3.2 CALM 0 6 0 3 1017.3 1017.2 0.0
31/08:30am 22.6 24.7 19.3 81 2.1 WSW 7 11 4 6 1017.2 - 0.0
31/08:00am 20.9 23.0 19.0 89 1.2 WSW 6 9 3 5 1017.0 - 0.0
31/07:30am 19.8 22.6 18.8 94 0.6 W 2 7 1 4 1016.7 - 0.0
31/07:00am 18.9 21.5 18.3 96 0.4 W 2 9 1 5 1016.4 - 0.0
31/06:30am 18.6 21.1 18.1 97 0.3 WNW 2 9 1 5 1016.1 - 0.0
31/06:00am 18.8 20.6 18.2 96 0.4 WSW 6 11 3 6 1015.8 1015.7 0.0
31/05:30am 19.2 21.9 18.6 96 0.4 W 2 6 1 3 1015.5 - 0.0
31/05:00am 18.7 21.5 18.0 96 0.4 CALM 0 0 0 0 1015.3 - 0.0
31/04:30am 19.0 21.2 18.4 96 0.4 WNW 4 9 2 5 1015.1 - 0.0
31/04:00am 19.2 21.1 18.6 96 0.4 WNW 6 7 3 4 1015.1 - 0.0
31/03:30am 19.2 21.9 18.6 96 0.4 WNW 2 7 1 4 1015.2 - 0.0
31/03:00am 19.3 22.0 18.7 96 0.4 NW 2 7 1 4 1015.4 1015.3 0.0
31/02:30am 19.1 20.4 18.5 96 0.4 WSW 9 13 5 7 1015.5 - 0.0
31/02:00am 19.4 21.4 18.8 96 0.4 W 6 9 3 5 1015.7 - 0.0
31/01:30am 19.2 21.9 18.6 96 0.4 W 2 7 1 4 1015.9 - 0.0
31/01:00am 19.3 22.0 18.7 96 0.4 WSW 2 7 1 4 1016.0 - 0.0
31/12:30am 19.4 21.4 18.8 96 0.4 WSW 6 11 3 6 1016.0 - 0.0
31/12:00am 19.8 21.8 19.2 96 0.4 W 7 9 4 5 1016.2 1016.1 0.0
 
Date/Time
EST
Temp
°C
App
Temp
°C
Dew
Point
Rel
Hum
%
Delta-T
°C
Wind Press
QNH
hPa
Press
MSL
hPa
Rain
since 9 am
mm
Dir
 
Spd
km/h
Gust
km/h
Spd
kts
Gust
kts
30/11:30pm 20.0 22.0 19.2 95 0.5 W 7 11 4 6 1016.1 - 0.0
30/11:00pm 20.2 22.4 19.2 94 0.6 WSW 6 9 3 5 1016.2 - 0.0
30/10:30pm 20.5 22.3 19.6 95 0.6 WSW 9 13 5 7 1016.4 - 0.0
30/10:00pm 20.9 23.3 19.6 92 0.8 W 6 9 3 5 1016.5 - 0.0
30/09:30pm 21.2 24.1 19.9 92 0.8 W 4 9 2 5 1016.4 - 0.0
30/09:00pm 21.8 25.5 19.9 89 1.2 CALM 0 7 0 4 1016.3 1016.2 0.0
30/08:30pm 22.3 24.9 20.0 87 1.5 WSW 6 9 3 5 1016.0 - 0.0
30/08:00pm 22.2 25.9 20.0 87 1.4 CALM 0 0 0 0 1015.7 - 0.0
30/07:30pm 22.5 26.2 20.0 86 1.6 CALM 0 0 0 0 1015.4 - 0.0
30/07:00pm 22.7 26.2 19.6 82 2.0 CALM 0 0 0 0 1015.0 - 0.0
30/06:30pm 23.2 26.3 19.6 80 2.3 ENE 2 7 1 4 1014.6 - 0.0
30/06:00pm 23.7 25.5 18.8 74 3.1 ENE 7 11 4 6 1014.3 1014.2 0.0
30/05:30pm 24.3 25.5 19.1 73 3.3 NE 11 15 6 8 1014.1 - 0.0
30/05:00pm 24.9 25.7 18.2 66 4.2 ENE 11 17 6 9 1013.9 - 0.0
30/04:30pm 25.3 25.6 17.8 63 4.7 NE 13 19 7 10 1013.8 - 0.0
30/04:00pm 25.6 25.1 17.8 62 4.9 NE 17 22 9 12 1013.6 - 0.0
30/03:30pm 26.8 27.2 17.2 55 6.0 E 11 17 6 9 1013.7 - 0.0
30/03:00pm 27.0 27.4 18.2 58 5.6 E 13 20 7 11 1013.9 1013.8 0.0
30/02:30pm 27.6 28.0 18.2 56 6.0 ESE 13 19 7 10 1014.2 - 0.0
30/02:00pm 27.7 28.3 18.5 57 5.9 ESE 13 24 7 13 1014.8 - 0.0
30/01:30pm 27.9 29.2 19.4 60 5.5 ESE 11 17 6 9 1015.2 - 0.0
30/01:00pm 28.0 29.7 19.4 59 5.6 ENE 9 17 5 9 1015.7 - 0.0
30/12:30pm 26.7 27.7 17.8 58 5.6 ESE 9 17 5 9 1016.2 - 0.0
30/12:00pm 27.0 28.5 16.7 53 6.4 E 4 11 2 6 1016.9 1016.8 0.0
30/11:30am 26.4 29.0 17.6 58 5.5 CALM 0 0 0 0 1017.5 - 0.0
30/11:00am 25.8 27.4 17.8 61 5.0 SW 6 9 3 5 1018.0 - 0.0
30/10:30am 26.3 29.2 19.0 64 4.7 W 2 9 1 5 1018.5 - 0.0
30/10:00am 25.1 26.5 17.7 63 4.6 SSE 7 9 4 5 1018.7 - 0.0
30/09:30am 24.8 27.6 19.7 73 3.3 SW 4 7 2 4 1018.7 - 0.0
30/09:00am 22.8 26.4 19.7 83 2.0 CALM 0 0 0 0 1018.6 1018.5 0.0
30/08:30am 21.6 24.9 19.1 86 1.6 CALM 0 0 0 0 1018.4 - 0.0
30/08:00am 20.2 23.1 18.3 89 1.2 CALM 0 0 0 0 1018.1 - 0.0
30/07:30am 17.6 20.0 16.9 96 0.4 CALM 0 4 0 2 1017.7 - 0.0
30/07:00am 16.9 19.1 16.4 97 0.3 CALM 0 0 0 0 1017.2 - 0.0
30/06:30am 17.2 19.6 16.9 98 0.2 CALM 0 0 0 0 1016.8 - 0.0
30/06:00am 16.9 19.1 16.4 97 0.3 CALM 0 0 0 0 1016.4 1016.3 0.0
30/05:30am 17.0 19.2 16.5 97 0.3 CALM 0 0 0 0 1016.1 - 0.0
30/05:00am 17.1 19.3 16.4 96 0.4 CALM 0 0 0 0 1015.8 - 0.0
30/04:30am 17.0 18.4 16.5 97 0.3 W 4 9 2 5 1015.7 - 0.0
30/04:00am 17.2 18.3 16.7 97 0.3 W 6 7 3 4 1015.6 - 0.0
30/03:30am 17.2 19.1 16.7 97 0.3 W 2 6 1 3 1015.8 - 0.0
30/03:00am 17.4 19.3 16.7 96 0.4 W 2 7 1 4 1015.9 1015.8 0.0
30/02:30am 17.5 19.1 16.8 96 0.4 WSW 4 9 2 5 1016.1 - 0.0
30/02:00am 17.7 20.2 17.2 97 0.3 CALM 0 6 0 3 1016.2 - 0.0
30/01:30am 17.7 19.3 17.0 96 0.4 W 4 7 2 4 1016.5 - 0.0
30/01:00am 17.7 19.0 17.2 97 0.3 WNW 6 7 3 4 1016.9 - 0.0
30/12:30am 17.8 18.9 17.1 96 0.4 W 7 13 4 7 1017.2 - 0.0
30/12:00am 17.9 19.2 17.2 96 0.4 W 6 7 3 4 1017.4 1017.3 0.0

Other Formats:

Comma delimited format used in spreadsheet applications
http://www.bom.gov.au/fwo/IDQ60801/IDQ60801.95292.axf

JavaScript Object Notation format (JSON) in row-major order
http://www.bom.gov.au/fwo/IDQ60801/IDQ60801.95292.json